Time;durP1;ratioP1;P1;durP2;ratioP2;P2;SDS_P1;SDS_P2;PMS_P1;PMS_P2;Temp;Humidity;BMP_temperature;BMP_pressure;BME280_temperature;BME280_humidity;BME280_pressure;Samples;Min_cycle;Max_cycle;Signal;HPM_P1;HPM_P2
2023/03/03 00:00:46;;;;;;;;;;;2.90;99.90;;;;;;5025701;28;19920;-59
2023/03/03 00:03:14;;;;;;;;;;;2.80;99.90;;;;;;5031656;28;19913;-61
2023/03/03 00:05:41;;;;;;;;;;;2.80;99.90;;;;;;5029151;28;19963;-61
2023/03/03 00:08:06;;;;;;;;;;;2.80;99.90;;;;;;5030530;28;19920;-61
2023/03/03 00:10:32;;;;;;;;;;;2.70;99.90;;;;;;5031158;28;19913;-62
2023/03/03 00:12:59;;;;;;;;;;;2.70;99.90;;;;;;5032426;28;20062;-65
2023/03/03 00:15:25;;;;;;;;;;;;;;;;;;5029547;28;19932;-61
2023/03/03 00:17:50;;;;;;;;;;;;;;;;;;5030690;28;19918;-63
2023/03/03 00:20:16;;;;;;;;;;;;;;;;;;5029811;28;19984;-62
2023/03/03 00:22:42;;;;;;;;;;;;;;;;;;5031063;28;20302;-61
2023/03/03 00:25:08;;;;;;;;;;;;;;;;;;5028892;28;19912;-61
2023/03/03 00:27:37;;;;;;;;;;;;;;;;;;5028919;28;19948;-61
2023/03/03 00:30:03;;;;;;;;;;;;;;;;;;5027747;28;19995;-64
2023/03/03 00:32:29;;;;;;;;;;;;;;;;;;5026055;28;20387;-62
2023/03/03 00:34:55;;;;;;;;;;;;;;;;;;5029277;28;19921;-63
2023/03/03 00:37:21;;;;;;;;;;;;;;;;;;5027581;28;19959;-61
2023/03/03 00:39:46;;;;;;;;;;;;;;;;;;5025251;28;19920;-60
2023/03/03 00:42:12;;;;;;;;;;;;;;;;;;5029491;28;19967;-58
2023/03/03 00:44:40;;;;;;;;;;;;;;;;;;5027409;28;20616;-60
2023/03/03 00:47:05;;;;;;;;;;;;;;;;;;5030505;28;20411;-60
2023/03/03 00:49:32;;;;;;;;;;;;;;;;;;5029205;28;20005;-61
2023/03/03 00:51:57;;;;;;;;;;;;;;;;;;5013019;28;19928;-59
2023/03/03 00:54:23;;;;;;;;;;;;;;;;;;5028129;28;19917;-62
2023/03/03 00:56:49;;;;;;;;;;;;;;;;;;5028168;28;19921;-60
2023/03/03 00:59:15;;;;;;;;;;;;;;;;;;5024898;28;19925;-58
2023/03/03 01:01:41;;;;;;;;;;;;;;;;;;5029720;28;19913;-63
2023/03/03 01:04:07;;;;;;;;;;;;;;;;;;5027968;28;20267;-61
2023/03/03 01:06:33;;;;;;;;;;;;;;;;;;5025816;28;19920;-59
2023/03/03 01:08:58;;;;;;;;;;;;;;;;;;5027465;28;19928;-61
2023/03/03 01:11:24;;;;;;;;;;;;;;;;;;5028144;28;20588;-63
2023/03/03 01:13:50;;;;;;;;;;;;;;;;;;5028046;28;19917;-60
2023/03/03 01:16:16;;;;;;;;;;;;;;;;;;5011257;28;19917;-60
2023/03/03 01:18:42;;;;;;;;;;;;;;;;;;5010330;28;20321;-62
2023/03/03 01:21:08;;;;;;;;;;;;;;;;;;5027610;28;19928;-60
2023/03/03 01:23:34;;;;;;;;;;;;;;;;;;5027965;28;19939;-60
2023/03/03 01:25:59;;;;;;;;;;;;;;;;;;5027255;28;19920;-61
2023/03/03 01:28:25;;;;;;;;;;;;;;;;;;5029709;28;19913;-61
2023/03/03 01:30:51;;;;;;;;;;;;;;;;;;5014385;28;19926;-60
2023/03/03 01:33:17;;;;;;;;;;;;;;;;;;5008108;28;19914;-63
2023/03/03 01:35:43;;;;;;;;;;;;;;;;;;5007283;28;19924;-61
2023/03/03 01:38:09;;;;;;;;;;;;;;;;;;5003988;28;19924;-62
2023/03/03 01:40:34;;;;;;;;;;;2.70;99.90;;;;;;5005620;28;19961;-61
2023/03/03 01:43:00;;;;;;;;;;;1.80;99.90;;;;;;5007400;28;19940;-61
2023/03/03 01:45:30;;;;;;;;;;;1.70;99.90;;;;;;5008767;28;19976;-60
2023/03/03 01:47:55;;;;;;;;;;;1.70;99.90;;;;;;5008225;28;19918;-58
2023/03/03 01:50:29;;;;;;;;;;;1.70;99.90;;;;;;5007581;28;19968;-61
2023/03/03 01:52:56;;;;;;;;;;;1.60;99.90;;;;;;5007957;28;19918;-61
2023/03/03 01:55:23;;;;;;;;;;;1.60;99.90;;;;;;5007236;28;20276;-60
2023/03/03 01:57:57;;;;;;;;;;;1.60;99.90;;;;;;5007005;28;19992;-59
2023/03/03 02:00:22;;;;;;;;;;;1.50;99.90;;;;;;5001120;28;20015;-63
2023/03/03 02:02:48;;;;;;;;;;;1.50;99.90;;;;;;5008584;28;19917;-61
2023/03/03 02:05:15;;;;;;;;;;;1.50;99.90;;;;;;5007122;28;19921;-62
2023/03/03 02:07:40;;;;;;;;;;;1.40;99.90;;;;;;5006061;28;19920;-63
2023/03/03 02:10:06;;;;;;;;;;;1.40;99.90;;;;;;5005517;28;19917;-62
2023/03/03 02:12:47;;;;;;;;;;;1.30;99.90;;;;;;5005381;28;19913;-61
2023/03/03 02:15:17;;;;;;;;;;;1.30;99.90;;;;;;5004474;28;20415;-63
2023/03/03 02:17:42;;;;;;;;;;;1.30;99.90;;;;;;5008540;28;19964;-60
2023/03/03 02:20:13;;;;;;;;;;;1.30;99.90;;;;;;5006892;28;19917;-61
2023/03/03 02:22:58;;;;;;;;;;;1.20;99.90;;;;;;5006887;28;19917;-58
2023/03/03 02:25:32;;;;;;;;;;;1.20;99.90;;;;;;4987564;28;20008;-60
2023/03/03 02:27:58;;;;;;;;;;;1.20;99.90;;;;;;5006969;28;19959;-62
2023/03/03 02:30:24;;;;;;;;;;;1.20;99.90;;;;;;5019410;28;20472;-61
2023/03/03 02:32:50;;;;;;;;;;;;;;;;;;5025397;28;19918;-62
2023/03/03 02:35:16;;;;;;;;;;;;;;;;;;5028454;28;19917;-61
2023/03/03 02:37:42;;;;;;;;;;;1.20;99.90;;;;;;5025444;28;19913;-62
2023/03/03 02:40:08;;;;;;;;;;;;;;;;;;5026436;28;19917;-62
2023/03/03 02:42:33;;;;;;;;;;;;;;;;;;5006787;28;19913;-59
2023/03/03 02:44:59;;;;;;;;;;;;;;;;;;5028736;28;19917;-60
2023/03/03 02:47:25;;;;;;;;;;;;;;;;;;5029749;28;20010;-62
2023/03/03 02:49:51;;;;;;;;;;;;;;;;;;5027092;28;19920;-63
2023/03/03 02:52:17;;;;;;;;;;;;;;;;;;5029306;28;20374;-63
2023/03/03 02:54:43;;;;;;;;;;;;;;;;;;5026883;28;19940;-61
2023/03/03 02:57:09;;;;;;;;;;;;;;;;;;5025910;28;20387;-62
2023/03/03 02:59:35;;;;;;;;;;;;;;;;;;5028289;28;19960;-63
2023/03/03 03:02:01;;;;;;;;;;;1.20;99.90;;;;;;5027736;28;20008;-60
2023/03/03 03:04:26;;;;;;;;;;;1.20;99.90;;;;;;5027238;28;19933;-59
2023/03/03 03:06:52;;;;;;;;;;;1.10;99.90;;;;;;5025514;28;19913;-60
2023/03/03 03:09:19;;;;;;;;;;;1.20;99.90;;;;;;5022544;28;20548;-61
2023/03/03 03:11:44;;;;;;;;;;;1.20;99.90;;;;;;5028163;28;19917;-58
2023/03/03 03:14:10;;;;;;;;;;;1.20;99.90;;;;;;5024866;28;19936;-62
2023/03/03 03:16:36;;;;;;;;;;;1.30;99.90;;;;;;5025695;28;20012;-60
2023/03/03 03:19:02;;;;;;;;;;;1.30;99.90;;;;;;5028268;28;20005;-60
2023/03/03 03:21:28;;;;;;;;;;;1.30;99.90;;;;;;5029894;28;19917;-59
2023/03/03 03:23:54;;;;;;;;;;;1.30;99.90;;;;;;5026764;28;19913;-60
2023/03/03 03:26:20;;;;;;;;;;;1.30;99.90;;;;;;5032198;28;19913;-58
2023/03/03 03:28:45;;;;;;;;;;;1.30;99.90;;;;;;5031117;28;19960;-60
2023/03/03 03:31:11;;;;;;;;;;;1.30;99.90;;;;;;5067380;23;19939;-59
2023/03/03 03:33:37;;;;;;;;;;;1.40;99.90;;;;;;5068346;28;19920;-58
2023/03/03 03:36:03;;;;;;;;;;;1.40;99.90;;;;;;5068720;28;19973;-56
2023/03/03 03:38:29;;;;;;;;;;;1.40;99.90;;;;;;5070680;28;19912;-57
2023/03/03 03:40:54;;;;;;;;;;;1.40;99.90;;;;;;5054982;28;19936;-57
2023/03/03 03:43:19;;;;;;;;;;;1.40;99.90;;;;;;5050692;28;20259;-56
2023/03/03 03:45:45;;;;;;;;;;;1.50;99.90;;;;;;5044985;28;19920;-57
2023/03/03 03:48:10;;;;;;;;;;;1.50;99.90;;;;;;5032734;28;19917;-57
2023/03/03 03:50:36;;;;;;;;;;;1.50;99.90;;;;;;5052102;28;20014;-58
2023/03/03 03:53:02;;;;;;;;;;;1.50;99.90;;;;;;5050142;28;19913;-59
2023/03/03 03:55:27;;;;;;;;;;;1.50;99.90;;;;;;5046427;28;19921;-57
2023/03/03 03:57:54;;;;;;;;;;;1.50;99.90;;;;;;5050866;28;19917;-57
2023/03/03 04:00:19;;;;;;;;;;;1.50;99.90;;;;;;5045338;28;19919;-58
2023/03/03 04:02:45;;;;;;;;;;;1.50;99.90;;;;;;5051208;28;20367;-58
2023/03/03 04:05:10;;;;;;;;;;;1.60;99.90;;;;;;5047131;28;19943;-59
2023/03/03 04:07:36;;;;;;;;;;;1.60;99.90;;;;;;5050676;28;19928;-57
2023/03/03 04:10:01;;;;;;;;;;;1.60;99.90;;;;;;5050435;28;19913;-55
2023/03/03 04:12:27;;;;;;;;;;;1.50;99.90;;;;;;5048317;28;20366;-58
2023/03/03 04:14:52;;;;;;;;;;;1.50;99.90;;;;;;5043398;28;19927;-57
2023/03/03 04:17:18;;;;;;;;;;;1.60;99.90;;;;;;5048022;28;20008;-58
2023/03/03 04:19:44;;;;;;;;;;;1.60;99.90;;;;;;5048828;28;20402;-60
2023/03/03 04:22:09;;;;;;;;;;;1.60;99.90;;;;;;5044598;28;20010;-57
2023/03/03 04:24:35;;;;;;;;;;;1.60;99.90;;;;;;5030314;28;19917;-58
2023/03/03 04:27:00;;;;;;;;;;;1.60;99.90;;;;;;5049364;28;19916;-58
2023/03/03 04:29:26;;;;;;;;;;;1.60;99.90;;;;;;5050104;28;21182;-58
2023/03/03 04:31:51;;;;;;;;;;;1.60;99.90;;;;;;5064790;28;19917;-60
2023/03/03 04:34:17;;;;;;;;;;;1.50;99.90;;;;;;5049230;28;20015;-55
2023/03/03 04:36:42;;;;;;;;;;;1.50;99.90;;;;;;5047837;28;19924;-58
2023/03/03 04:39:07;;;;;;;;;;;1.60;99.90;;;;;;5049218;28;19920;-57
2023/03/03 04:41:33;;;;;;;;;;;1.60;99.90;;;;;;5047855;28;20394;-57
2023/03/03 04:43:58;;;;;;;;;;;1.50;99.90;;;;;;5048800;28;20393;-58
2023/03/03 04:46:24;;;;;;;;;;;1.50;99.90;;;;;;5047460;28;19960;-57
2023/03/03 04:48:49;;;;;;;;;;;1.60;99.90;;;;;;5048507;28;20367;-58
2023/03/03 04:51:15;;;;;;;;;;;1.60;99.90;;;;;;5049183;28;20176;-56
2023/03/03 04:53:41;;;;;;;;;;;1.60;99.90;;;;;;5049532;28;20063;-56
2023/03/03 04:56:06;;;;;;;;;;;1.60;99.90;;;;;;5050207;28;19962;-59
2023/03/03 04:58:31;;;;;;;;;;;1.60;99.90;;;;;;5045238;28;20450;-55
2023/03/03 05:00:57;;;;;;;;;;;1.60;99.90;;;;;;5048242;28;19913;-58
2023/03/03 05:03:23;;;;;;;;;;;1.60;99.90;;;;;;5049179;28;20000;-55
2023/03/03 05:05:49;;;;;;;;;;;1.60;99.90;;;;;;5047155;28;20314;-55
2023/03/03 05:08:15;;;;;;;;;;;1.60;99.90;;;;;;5043765;28;19936;-56
2023/03/03 05:10:40;;;;;;;;;;;1.60;99.90;;;;;;5049092;28;19963;-58
2023/03/03 05:13:07;;;;;;;;;;;1.60;99.90;;;;;;5051282;28;19975;-58
2023/03/03 05:15:32;;;;;;;;;;;1.60;99.90;;;;;;5041287;28;19917;-57
2023/03/03 05:17:58;;;;;;;;;;;1.60;99.90;;;;;;5048323;28;19913;-57
2023/03/03 05:20:24;;;;;;;;;;;1.50;99.90;;;;;;5050232;28;19921;-59
2023/03/03 05:22:49;;;;;;;;;;;1.60;99.90;;;;;;5049017;28;20302;-57
2023/03/03 05:25:15;;;;;;;;;;;1.60;99.90;;;;;;5049586;28;19913;-58
2023/03/03 05:27:41;;;;;;;;;;;1.70;99.90;;;;;;5051325;28;19913;-57
2023/03/03 05:30:09;;;;;;;;;;;1.70;99.90;;;;;;5040901;28;19917;-59
2023/03/03 05:32:34;;;;;;;;;;;1.70;99.90;;;;;;5048550;28;19921;-58
2023/03/03 05:35:00;;;;;;;;;;;1.70;99.90;;;;;;5048649;28;19928;-59
2023/03/03 05:37:26;;;;;;;;;;;1.80;99.90;;;;;;5041901;28;19913;-58
2023/03/03 05:39:51;;;;;;;;;;;1.80;99.90;;;;;;5042635;28;20431;-57
2023/03/03 05:42:17;;;;;;;;;;;1.80;99.90;;;;;;5049502;28;19913;-58
2023/03/03 05:44:42;;;;;;;;;;;1.80;99.90;;;;;;5046098;28;19913;-59
2023/03/03 05:47:08;;;;;;;;;;;1.80;99.90;;;;;;5048349;28;19917;-58
2023/03/03 05:49:34;;;;;;;;;;;1.80;99.90;;;;;;5047243;28;20090;-55
2023/03/03 05:51:59;;;;;;;;;;;1.70;99.90;;;;;;5047774;28;20003;-60
2023/03/03 05:54:25;;;;;;;;;;;1.60;99.90;;;;;;5047443;28;19919;-57
2023/03/03 05:56:50;;;;;;;;;;;1.60;99.90;;;;;;5050293;28;19916;-58
2023/03/03 05:59:16;;;;;;;;;;;1.70;99.90;;;;;;5047345;28;19923;-55
2023/03/03 06:01:41;;;;;;;;;;;1.60;99.90;;;;;;5045655;28;19967;-59
2023/03/03 06:04:07;;;;;;;;;;;1.70;99.90;;;;;;5043381;28;19932;-58
2023/03/03 06:06:33;;;;;;;;;;;1.70;99.90;;;;;;5048639;28;20366;-59
2023/03/03 06:08:58;;;;;;;;;;;1.70;99.90;;;;;;5047303;28;20393;-57
2023/03/03 06:11:23;;;;;;;;;;;1.70;99.90;;;;;;5045250;28;20294;-58
2023/03/03 06:13:49;;;;;;;;;;;1.70;99.90;;;;;;5048509;28;19913;-58
2023/03/03 06:16:14;;;;;;;;;;;1.70;99.90;;;;;;5044532;28;20271;-58
2023/03/03 06:18:40;;;;;;;;;;;1.80;99.90;;;;;;5046818;28;20298;-54
2023/03/03 06:21:05;;;;;;;;;;;1.80;99.90;;;;;;5048753;28;19947;-59
2023/03/03 06:23:31;;;;;;;;;;;1.70;99.90;;;;;;5048805;28;19931;-54
2023/03/03 06:25:57;;;;;;;;;;;1.80;99.90;;;;;;5045982;28;19919;-58
2023/03/03 06:28:23;;;;;;;;;;;1.70;99.90;;;;;;5047124;28;19919;-57
2023/03/03 06:30:52;;;;;;;;;;;1.80;99.90;;;;;;5043409;28;19921;-57
2023/03/03 06:33:17;;;;;;;;;;;1.80;99.90;;;;;;5048141;28;19917;-57
2023/03/03 06:35:43;;;;;;;;;;;1.80;99.90;;;;;;5043701;28;19921;-59
2023/03/03 06:38:08;;;;;;;;;;;1.80;99.90;;;;;;5046292;28;20386;-56
2023/03/03 06:40:33;;;;;;;;;;;1.80;99.90;;;;;;5041365;28;19920;-58
2023/03/03 06:43:01;;;;;;;;;;;1.90;99.90;;;;;;5049749;28;19917;-60
2023/03/03 06:45:26;;;;;;;;;;;1.90;99.90;;;;;;5048458;28;19924;-59
2023/03/03 06:47:52;;;;;;;;;;;1.80;99.90;;;;;;5045503;28;19916;-57
2023/03/03 06:50:19;;;;;;;;;;;1.80;99.90;;;;;;5046422;28;19938;-60
2023/03/03 06:52:44;;;;;;;;;;;1.80;99.90;;;;;;5046981;28;19913;-55
2023/03/03 06:55:12;;;;;;;;;;;1.90;99.90;;;;;;5045443;28;19917;-58
2023/03/03 06:57:38;;;;;;;;;;;1.90;99.90;;;;;;5035229;28;19936;-60
2023/03/03 07:00:14;;;;;;;;;;;1.80;99.90;;;;;;5052719;28;20370;-57
2023/03/03 07:02:40;;;;;;;;;;;1.70;99.90;;;;;;5052736;28;19913;-58
2023/03/03 07:05:09;;;;;;;;;;;1.70;99.90;;;;;;5047299;28;19917;-58
2023/03/03 07:07:35;;;;;;;;;;;1.70;99.90;;;;;;5054197;28;19921;-58
2023/03/03 07:10:05;;;;;;;;;;;1.80;99.90;;;;;;5048901;28;20369;-58
2023/03/03 07:12:31;;;;;;;;;;;1.90;99.90;;;;;;5059560;28;20338;-59
2023/03/03 07:15:12;;;;;;;;;;;2.00;99.90;;;;;;5058406;28;19963;-57
2023/03/03 07:17:42;;;;;;;;;;;2.10;99.90;;;;;;5053622;28;19994;-59
2023/03/03 07:20:21;;;;;;;;;;;2.00;99.90;;;;;;5053465;28;19909;-57
2023/03/03 07:22:47;;;;;;;;;;;2.00;99.90;;;;;;5052383;28;19912;-57
2023/03/03 07:25:20;;;;;;;;;;;1.80;99.90;;;;;;5052396;28;20427;-57
2023/03/03 07:27:45;;;;;;;;;;;1.80;99.90;;;;;;5032035;28;20344;-55
2023/03/03 07:30:11;;;;;;;;;;;1.80;99.90;;;;;;5043166;28;19925;-56
2023/03/03 07:32:41;;;;;;;;;;;1.90;99.90;;;;;;5053593;28;20393;-55
2023/03/03 07:35:29;;;;;;;;;;;1.90;99.90;;;;;;5053151;28;19919;-58
2023/03/03 07:37:55;;;;;;;;;;;1.80;99.90;;;;;;5042391;28;19999;-57
2023/03/03 07:40:33;;;;;;;;;;;1.90;99.90;;;;;;5051887;28;20008;-57
2023/03/03 07:42:58;;;;;;;;;;;2.00;99.90;;;;;;5053614;28;19909;-57
2023/03/03 07:45:28;;;;;;;;;;;2.00;99.90;;;;;;5051856;28;19913;-57
2023/03/03 07:48:12;;;;;;;;;;;2.00;99.90;;;;;;5053286;28;19959;-55
2023/03/03 07:50:38;;;;;;;;;;;2.00;99.90;;;;;;5052072;28;20401;-55
2023/03/03 07:53:11;;;;;;;;;;;2.00;99.90;;;;;;5051726;28;19924;-57
2023/03/03 07:55:38;;;;;;;;;;;2.00;99.90;;;;;;5050422;28;19923;-55
2023/03/03 07:58:04;;;;;;;;;;;;;;;;;;5053108;28;19916;-58
2023/03/03 08:00:30;;;;;;;;;;;;;;;;;;5050568;28;20290;-55
2023/03/03 08:02:56;;;;;;;;;;;;;;;;;;5053342;28;19909;-57
2023/03/03 08:05:22;;;;;;;;;;;;;;;;;;5053459;28;19955;-57
2023/03/03 08:07:48;;;;;;;;;;;;;;;;;;5052227;28;19944;-57
2023/03/03 08:10:28;;;;;;;;;;;2.10;99.90;;;;;;5046591;28;19958;-59
2023/03/03 08:12:54;;;;;;;;;;;2.10;99.90;;;;;;5050316;28;19923;-57
2023/03/03 08:15:21;;;;;;;;;;;2.10;99.90;;;;;;5045933;28;19967;-58
2023/03/03 08:17:47;;;;;;;;;;;2.20;99.90;;;;;;5041269;28;19913;-56
2023/03/03 08:20:28;;;;;;;;;;;2.30;99.90;;;;;;5047357;28;20448;-54
2023/03/03 08:22:53;;;;;;;;;;;2.10;99.90;;;;;;5045107;28;19917;-57
2023/03/03 08:25:19;;;;;;;;;;;2.00;99.90;;;;;;5043759;28;20298;-57
2023/03/03 08:27:44;;;;;;;;;;;2.00;99.90;;;;;;5043572;28;19917;-57
2023/03/03 08:30:10;;;;;;;;;;;2.00;99.90;;;;;;5047890;28;20513;-54
2023/03/03 08:32:35;;;;;;;;;;;2.20;99.90;;;;;;5051320;28;20280;-55
2023/03/03 08:35:01;;;;;;;;;;;2.10;99.90;;;;;;5050174;28;20344;-57
2023/03/03 08:37:26;;;;;;;;;;;2.20;99.90;;;;;;5051224;28;19931;-55
2023/03/03 08:39:52;;;;;;;;;;;2.10;99.90;;;;;;5050560;28;19920;-53
2023/03/03 08:42:17;;;;;;;;;;;2.20;99.90;;;;;;5051734;28;19909;-56
2023/03/03 08:44:43;;;;;;;;;;;2.20;99.90;;;;;;5052165;28;19916;-57
2023/03/03 08:47:08;;;;;;;;;;;2.30;99.90;;;;;;5048249;28;19917;-56
2023/03/03 08:49:34;;;;;;;;;;;2.40;99.90;;;;;;5050222;28;19917;-57
2023/03/03 08:51:59;;;;;;;;;;;2.50;99.90;;;;;;5051742;28;19999;-57
2023/03/03 08:54:25;;;;;;;;;;;2.50;99.90;;;;;;5049525;28;19916;-57
2023/03/03 08:56:50;;;;;;;;;;;2.50;99.90;;;;;;5048623;28;20306;-57
2023/03/03 08:59:16;;;;;;;;;;;2.50;99.90;;;;;;5049770;28;19920;-55
2023/03/03 09:01:43;;;;;;;;;;;2.50;99.90;;;;;;5050617;28;19920;-54
2023/03/03 09:04:09;;;;;;;;;;;2.30;99.90;;;;;;5042213;28;19928;-55
2023/03/03 09:06:35;;;;;;;;;;;2.30;99.90;;;;;;5051066;28;20382;-55
2023/03/03 09:09:00;;;;;;;;;;;2.30;99.90;;;;;;5045587;28;19913;-56
2023/03/03 09:11:26;;;;;;;;;;;2.30;99.90;;;;;;5051156;28;19916;-57
2023/03/03 09:14:00;;;;;;;;;;;2.40;99.90;;;;;;5049838;28;19913;-57
2023/03/03 09:16:29;;;;;;;;;;;2.40;99.90;;;;;;5051732;28;19919;-54
2023/03/03 09:18:55;;;;;;;;;;;2.30;99.90;;;;;;5050135;28;19913;-53
2023/03/03 09:21:22;;;;;;;;;;;2.30;99.90;;;;;;5050161;28;19908;-56
2023/03/03 09:23:51;;;;;;;;;;;2.30;99.90;;;;;;5048992;28;19983;-57
2023/03/03 09:26:26;;;;;;;;;;;2.40;99.90;;;;;;5045791;28;20294;-55
2023/03/03 09:29:12;;;;;;;;;;;2.40;99.90;;;;;;5050185;28;19935;-57
2023/03/03 09:31:44;;;;;;;;;;;2.40;99.90;;;;;;5031211;28;21202;-55
2023/03/03 09:34:33;;;;;;;;;;;2.40;99.90;;;;;;5047289;28;19912;-56
2023/03/03 09:36:58;;;;;;;;;;;2.50;99.90;;;;;;5039715;28;20007;-56
2023/03/03 09:39:25;;;;;;;;;;;2.40;99.90;;;;;;5049091;28;19948;-53
2023/03/03 09:42:09;;;;;;;;;;;2.40;99.90;;;;;;5046241;28;20501;-58
2023/03/03 09:44:53;;;;;;;;;;;2.30;99.90;;;;;;5046208;28;19940;-54
2023/03/03 09:47:29;;;;;;;;;;;2.40;99.90;;;;;;5039106;28;20059;-57
2023/03/03 09:50:04;;;;;;;;;;;2.40;99.90;;;;;;5046906;28;19913;-58
2023/03/03 09:52:29;;;;;;;;;;;2.40;99.90;;;;;;5045999;28;19909;-57
2023/03/03 09:54:55;;;;;;;;;;;2.40;99.90;;;;;;5046514;28;20110;-58
2023/03/03 09:57:29;;;;;;;;;;;2.50;99.90;;;;;;5047374;28;19921;-57
2023/03/03 10:00:14;;;;;;;;;;;2.60;99.90;;;;;;5048174;28;19912;-56
2023/03/03 10:02:51;;;;;;;;;;;2.70;99.90;;;;;;5044211;28;19941;-51
2023/03/03 10:05:24;;;;;;;;;;;2.70;99.90;;;;;;5048740;28;20382;-54
2023/03/03 10:07:49;;;;;;;;;;;2.70;99.90;;;;;;5044812;28;20341;-56
2023/03/03 10:10:20;;;;;;;;;;;2.90;99.90;;;;;;5045590;28;19939;-58
2023/03/03 10:12:57;;;;;;;;;;;2.90;99.90;;;;;;5046148;28;20003;-56
2023/03/03 10:15:39;;;;;;;;;;;3.00;99.90;;;;;;5049897;28;19916;-57
2023/03/03 10:18:07;;;;;;;;;;;3.20;99.90;;;;;;5049544;28;19925;-55
2023/03/03 10:20:39;;;;;;;;;;;3.20;99.90;;;;;;5046367;28;20390;-57
2023/03/03 10:23:14;;;;;;;;;;;3.10;99.90;;;;;;5043092;28;20369;-56
2023/03/03 10:25:42;;;;;;;;;;;3.20;99.90;;;;;;5047278;28;19952;-55
2023/03/03 10:28:10;;;;;;;;;;;3.10;99.90;;;;;;5044619;28;20298;-54
2023/03/03 10:30:48;;;;;;;;;;;3.20;99.90;;;;;;5042486;28;19921;-56
2023/03/03 10:33:33;;;;;;;;;;;3.30;99.90;;;;;;5042694;28;19909;-56
2023/03/03 10:36:07;;;;;;;;;;;3.40;99.90;;;;;;5037310;28;19927;-58
2023/03/03 10:38:39;;;;;;;;;;;3.50;99.90;;;;;;5045912;28;19959;-58
2023/03/03 10:41:18;;;;;;;;;;;3.50;99.90;;;;;;5041752;28;19952;-56
2023/03/03 10:43:46;;;;;;;;;;;3.40;99.90;;;;;;5040913;28;19917;-58
2023/03/03 10:46:12;;;;;;;;;;;3.50;99.90;;;;;;5040301;28;19919;-56
2023/03/03 10:49:00;;;;;;;;;;;3.60;99.90;;;;;;5046930;28;19999;-55
2023/03/03 10:51:28;;;;;;;;;;;3.70;99.90;;;;;;5047412;28;20754;-56
2023/03/03 10:53:58;;;;;;;;;;;3.80;99.90;;;;;;5037929;28;20015;-55
2023/03/03 10:56:29;;;;;;;;;;;3.60;99.90;;;;;;5045468;28;19920;-57
2023/03/03 10:58:58;;;;;;;;;;;3.70;99.90;;;;;;5036297;28;19913;-57
2023/03/03 11:01:36;;;;;;;;;;;3.70;99.90;;;;;;5039560;28;20483;-58
2023/03/03 11:04:20;;;;;;;;;;;3.90;99.90;;;;;;5036817;28;19923;-55
2023/03/03 11:06:48;;;;;;;;;;;3.90;99.90;;;;;;5045548;28;19939;-57
2023/03/03 11:09:31;;;;;;;;;;;4.00;99.90;;;;;;5042519;28;20394;-54
2023/03/03 11:12:03;;;;;;;;;;;3.90;99.90;;;;;;5046553;28;19916;-57
2023/03/03 11:14:35;;;;;;;;;;;3.80;99.90;;;;;;5044296;28;19924;-56
2023/03/03 11:17:08;;;;;;;;;;;3.90;99.90;;;;;;5045811;28;20011;-53
2023/03/03 11:19:34;;;;;;;;;;;4.00;99.90;;;;;;5045848;28;19913;-57
2023/03/03 11:22:00;;;;;;;;;;;4.20;99.90;;;;;;5044341;28;20364;-55
2023/03/03 11:24:32;;;;;;;;;;;4.10;99.90;;;;;;5046815;28;19909;-57
2023/03/03 11:27:07;;;;;;;;;;;4.10;99.90;;;;;;5042868;28;19943;-58
2023/03/03 11:29:42;;;;;;;;;;;4.20;99.90;;;;;;5040928;28;19917;-57
2023/03/03 11:32:19;;;;;;;;;;;4.20;99.90;;;;;;5041179;28;19963;-56
2023/03/03 11:34:55;;;;;;;;;;;4.20;99.90;;;;;;5040017;28;19935;-58
2023/03/03 11:37:28;;;;;;;;;;;4.30;99.90;;;;;;5036892;28;19917;-56
2023/03/03 11:39:56;;;;;;;;;;;4.40;99.90;;;;;;5039620;28;20019;-56
2023/03/03 11:42:21;;;;;;;;;;;4.30;99.90;;;;;;5024858;28;19959;-54
2023/03/03 11:44:54;;;;;;;;;;;4.30;99.90;;;;;;5050238;28;20046;-57
2023/03/03 11:47:19;;;;;;;;;;;4.50;99.90;;;;;;5049771;28;19921;-56
2023/03/03 11:49:51;;;;;;;;;;;4.60;99.90;;;;;;5049373;28;19927;-54
2023/03/03 11:52:35;;;;;;;;;;;4.50;99.90;;;;;;5047894;28;19935;-56
2023/03/03 11:55:08;;;;;;;;;;;4.50;99.90;;;;;;5049894;28;19951;-57
2023/03/03 11:57:43;;;;;;;;;;;4.30;99.90;;;;;;5050142;28;19956;-56
2023/03/03 12:00:08;;;;;;;;;;;4.40;99.90;;;;;;5047169;28;19913;-57
2023/03/03 12:02:52;;;;;;;;;;;4.50;99.90;;;;;;5050800;28;20387;-60
2023/03/03 12:05:33;;;;;;;;;;;4.60;99.90;;;;;;5048746;28;20325;-55
2023/03/03 12:08:05;;;;;;;;;;;4.80;99.90;;;;;;5047558;28;19913;-56
2023/03/03 12:10:36;;;;;;;;;;;4.80;99.90;;;;;;5049677;28;20412;-55
2023/03/03 12:13:10;;;;;;;;;;;4.90;99.90;;;;;;5049421;28;19959;-55
2023/03/03 12:15:51;;;;;;;;;;;4.80;99.90;;;;;;5051257;28;19970;-57
2023/03/03 12:18:35;;;;;;;;;;;4.70;99.90;;;;;;5051987;28;19916;-57
2023/03/03 12:21:07;;;;;;;;;;;4.60;99.90;;;;;;5050923;28;19939;-55
2023/03/03 12:23:45;;;;;;;;;;;4.70;99.90;;;;;;5048701;28;19935;-56
2023/03/03 12:26:27;;;;;;;;;;;4.70;99.90;;;;;;5055472;28;19916;-55
2023/03/03 12:28:57;;;;;;;;;;;4.80;99.90;;;;;;5047380;28;19913;-56
2023/03/03 12:31:28;;;;;;;;;;;5.00;99.90;;;;;;5051054;28;19967;-56
2023/03/03 12:33:55;;;;;;;;;;;5.20;99.90;;;;;;5044635;28;20008;-57
2023/03/03 12:36:29;;;;;;;;;;;5.50;99.90;;;;;;5048465;28;19964;-57
2023/03/03 12:38:59;;;;;;;;;;;5.40;99.90;;;;;;5049712;28;20428;-56
2023/03/03 12:41:43;;;;;;;;;;;5.20;99.90;;;;;;5051080;28;19940;-53
2023/03/03 12:44:11;;;;;;;;;;;5.20;99.90;;;;;;5049040;28;19928;-52
2023/03/03 12:46:42;;;;;;;;;;;5.00;99.90;;;;;;5044176;28;19913;-56
2023/03/03 12:49:08;;;;;;;;;;;5.20;99.90;;;;;;5044918;28;19920;-58
2023/03/03 12:51:52;;;;;;;;;;;5.40;99.90;;;;;;5044052;28;20545;-55
2023/03/03 12:54:30;;;;;;;;;;;5.30;99.90;;;;;;5040398;28;19916;-56
2023/03/03 12:56:59;;;;;;;;;;;5.20;99.90;;;;;;5047506;28;20400;-58
2023/03/03 12:59:48;;;;;;;;;;;5.20;99.90;;;;;;5044965;28;20019;-57
2023/03/03 13:02:34;;;;;;;;;;;5.30;99.90;;;;;;5041139;28;19917;-57
2023/03/03 13:05:14;;;;;;;;;;;5.10;99.90;;;;;;5043706;28;19939;-55
2023/03/03 13:07:44;;;;;;;;;;;5.20;99.90;;;;;;5046002;28;19982;-55
2023/03/03 13:10:13;;;;;;;;;;;5.10;99.90;;;;;;5043287;28;20378;-58
2023/03/03 13:12:44;;;;;;;;;;;5.10;99.90;;;;;;5042315;28;19913;-53
2023/03/03 13:15:48;;;;;;;;;;;5.10;99.90;;;;;;5039625;28;20299;-56
2023/03/03 13:18:24;;;;;;;;;;;5.20;99.90;;;;;;4946396;28;19918;-58
2023/03/03 13:20:52;;;;;;;;;;;5.20;99.90;;;;;;4944313;28;19921;-56
2023/03/03 13:23:20;;;;;;;;;;;5.00;99.90;;;;;;4997072;28;19975;-55
2023/03/03 13:25:48;;;;;;;;;;;4.90;99.90;;;;;;5044026;28;20333;-57
2023/03/03 13:28:26;;;;;;;;;;;5.00;99.90;;;;;;5043814;28;19935;-52
2023/03/03 13:30:55;;;;;;;;;;;5.20;99.90;;;;;;5039683;28;20012;-57
2023/03/03 13:33:32;;;;;;;;;;;5.40;99.90;;;;;;5043555;28;19919;-55
2023/03/03 13:35:59;;;;;;;;;;;5.60;99.90;;;;;;5042642;28;19917;-52
2023/03/03 13:38:36;;;;;;;;;;;5.80;99.90;;;;;;5044963;28;19924;-52
2023/03/03 13:41:27;;;;;;;;;;;6.00;99.90;;;;;;5047271;28;19917;-56
2023/03/03 13:43:58;;;;;;;;;;;6.00;99.90;;;;;;5036829;28;19962;-58
2023/03/03 13:46:30;;;;;;;;;;;5.80;99.90;;;;;;5043798;28;19921;-54
2023/03/03 13:49:04;;;;;;;;;;;5.60;99.90;;;;;;5041722;28;20398;-55
2023/03/03 13:51:30;;;;;;;;;;;5.50;99.90;;;;;;5044181;28;20351;-55
2023/03/03 13:54:01;;;;;;;;;;;5.50;99.90;;;;;;5046210;28;20007;-55
2023/03/03 13:56:27;;;;;;;;;;;5.50;99.90;;;;;;5049985;28;20298;-56
2023/03/03 13:59:08;;;;;;;;;;;5.60;99.90;;;;;;5045169;28;19917;-55
2023/03/03 14:01:40;;;;;;;;;;;5.50;99.90;;;;;;5046345;28;19913;-52
2023/03/03 14:04:16;;;;;;;;;;;5.50;99.90;;;;;;5041690;28;20453;-53
2023/03/03 14:06:47;;;;;;;;;;;5.30;99.90;;;;;;5047278;28;20317;-56
2023/03/03 14:09:33;;;;;;;;;;;5.40;99.90;;;;;;5038326;28;19913;-55
2023/03/03 14:12:01;;;;;;;;;;;5.30;99.90;;;;;;5046186;28;19913;-54
2023/03/03 14:14:33;;;;;;;;;;;5.30;99.90;;;;;;5045206;28;19948;-56
2023/03/03 14:17:16;;;;;;;;;;;5.40;99.90;;;;;;5050679;28;20426;-57
2023/03/03 14:19:45;;;;;;;;;;;5.20;99.90;;;;;;5041947;28;19917;-56
2023/03/03 14:22:15;;;;;;;;;;;5.30;99.90;;;;;;5049063;28;20027;-57
2023/03/03 14:25:13;;;;;;;;;;;5.40;99.90;;;;;;5048913;28;19913;-55
2023/03/03 14:27:47;;;;;;;;;;;5.50;99.90;;;;;;4998493;28;19921;-56
2023/03/03 14:30:22;;;;;;;;;;;5.50;99.90;;;;;;5045531;28;19928;-57
2023/03/03 14:33:00;;;;;;;;;;;5.30;99.90;;;;;;5048080;28;19913;-58
2023/03/03 14:35:28;;;;;;;;;;;5.30;99.90;;;;;;5045654;28;19928;-56
2023/03/03 14:37:59;;;;;;;;;;;5.50;99.90;;;;;;5047314;28;19962;-56
2023/03/03 14:40:32;;;;;;;;;;;5.50;99.90;;;;;;5047982;28;19920;-53
2023/03/03 14:42:59;;;;;;;;;;;5.60;99.90;;;;;;5040080;28;19960;-58
2023/03/03 14:45:27;;;;;;;;;;;5.60;99.90;;;;;;5044570;28;19914;-53
2023/03/03 14:47:53;;;;;;;;;;;5.60;99.90;;;;;;5045962;28;19963;-56
2023/03/03 14:50:31;;;;;;;;;;;5.60;99.90;;;;;;5044478;28;19967;-55
2023/03/03 14:53:15;;;;;;;;;;;5.70;99.90;;;;;;5049463;28;19913;-58
2023/03/03 14:55:42;;;;;;;;;;;5.80;99.90;;;;;;5050243;28;20335;-56
2023/03/03 14:58:24;;;;;;;;;;;5.80;99.90;;;;;;5052545;28;19909;-58